createdAt,value
2022-12-07T00:00:12.318Z,12.30
2022-12-07T00:02:39.737Z,12.30
2022-12-07T00:05:07.681Z,12.40
2022-12-07T00:07:34.940Z,12.40
2022-12-07T00:10:02.401Z,12.40
2022-12-07T00:12:29.932Z,12.40
2022-12-07T00:14:57.549Z,12.40
2022-12-07T00:17:27.688Z,12.40
2022-12-07T00:19:54.882Z,12.20
2022-12-07T00:22:29.728Z,12.10
2022-12-07T00:25:02.231Z,12.10
2022-12-07T00:27:36.363Z,12.20
2022-12-07T00:30:18.045Z,12.20
2022-12-07T00:32:48.168Z,12.00
2022-12-07T00:35:15.182Z,11.90
2022-12-07T00:37:42.296Z,12.00
2022-12-07T00:40:09.799Z,12.00
2022-12-07T00:42:37.612Z,12.10
2022-12-07T00:45:05.190Z,12.20
2022-12-07T00:47:32.384Z,12.20
2022-12-07T00:50:00.120Z,12.10
2022-12-07T00:52:27.675Z,12.00
2022-12-07T00:54:55.921Z,11.90
2022-12-07T00:57:23.165Z,11.70
2022-12-07T00:59:52.082Z,11.60
2022-12-07T01:02:19.428Z,11.60
2022-12-07T01:04:46.784Z,11.60
2022-12-07T01:07:14.808Z,11.50
2022-12-07T01:09:41.938Z,11.60
2022-12-07T01:12:08.905Z,11.70
2022-12-07T01:14:36.331Z,11.70
2022-12-07T01:17:03.480Z,11.80
2022-12-07T01:19:32.139Z,11.90
2022-12-07T01:21:59.140Z,11.90
2022-12-07T01:24:26.630Z,11.90
2022-12-07T01:26:54.910Z,11.70
2022-12-07T01:29:21.878Z,11.60
2022-12-07T01:31:49.899Z,11.60
2022-12-07T01:34:16.883Z,11.70
2022-12-07T01:36:46.571Z,11.70
2022-12-07T01:39:13.822Z,11.80
2022-12-07T01:41:41.770Z,11.80
2022-12-07T01:44:08.867Z,11.80
2022-12-07T01:46:36.681Z,11.90
2022-12-07T01:49:04.588Z,12.00
2022-12-07T01:51:31.616Z,12.00
2022-12-07T01:53:58.800Z,12.10
2022-12-07T01:56:26.497Z,12.10
2022-12-07T01:58:53.718Z,12.10
2022-12-07T02:01:20.884Z,12.10
2022-12-07T02:03:47.923Z,12.10
2022-12-07T02:06:16.672Z,12.10
2022-12-07T02:08:43.927Z,12.00
2022-12-07T02:11:10.974Z,12.00
2022-12-07T02:13:38.881Z,12.10
2022-12-07T02:16:05.970Z,12.00
2022-12-07T02:18:51.592Z,11.80
2022-12-07T02:21:18.624Z,11.80
2022-12-07T02:24:04.481Z,11.60
2022-12-07T02:26:31.653Z,11.50
2022-12-07T02:29:07.264Z,11.30
2022-12-07T02:31:34.583Z,11.20
2022-12-07T02:34:11.373Z,11.20
2022-12-07T02:36:41.747Z,11.40
2022-12-07T02:39:11.365Z,11.60
2022-12-07T02:41:41.972Z,11.70
2022-12-07T02:44:09.950Z,11.80
2022-12-07T02:46:43.095Z,11.90
2022-12-07T02:49:10.449Z,11.80
2022-12-07T02:51:40.529Z,11.80
2022-12-07T02:54:18.109Z,11.70
2022-12-07T02:56:45.210Z,11.70
2022-12-07T02:59:26.464Z,11.70
2022-12-07T03:01:59.838Z,11.70
2022-12-07T03:04:30.515Z,11.80
2022-12-07T03:07:21.067Z,11.80
2022-12-07T03:09:48.293Z,11.90
2022-12-07T03:12:16.726Z,11.90
2022-12-07T03:14:46.944Z,11.90
2022-12-07T03:17:18.144Z,11.90
2022-12-07T03:19:45.053Z,11.90
2022-12-07T03:22:12.917Z,12.00
2022-12-07T03:24:42.820Z,11.90
2022-12-07T03:27:11.607Z,11.70
2022-12-07T03:29:43.078Z,11.60
2022-12-07T03:32:12.224Z,11.50
2022-12-07T03:34:51.060Z,11.50
2022-12-07T03:37:27.882Z,11.50
2022-12-07T03:39:59.546Z,11.50
2022-12-07T03:42:27.077Z,11.60
2022-12-07T03:44:54.110Z,11.60
2022-12-07T03:47:39.506Z,11.70
2022-12-07T03:50:10.176Z,11.70
2022-12-07T03:52:49.014Z,11.80
2022-12-07T03:55:20.817Z,11.90
2022-12-07T03:57:49.141Z,11.90
2022-12-07T04:00:16.436Z,11.90
2022-12-07T04:02:43.583Z,11.90
2022-12-07T04:05:10.885Z,11.80
2022-12-07T04:07:37.932Z,11.80
2022-12-07T04:10:05.542Z,11.70
2022-12-07T04:12:34.073Z,11.60
2022-12-07T04:15:00.984Z,11.50
2022-12-07T04:17:30.073Z,11.50
2022-12-07T04:19:58.961Z,11.40
2022-12-07T04:22:26.240Z,11.40
2022-12-07T04:24:53.485Z,11.50
2022-12-07T04:27:20.967Z,11.50
2022-12-07T04:29:47.922Z,11.60
2022-12-07T04:32:16.253Z,11.60
2022-12-07T04:34:43.321Z,11.60
2022-12-07T04:37:11.425Z,11.60
2022-12-07T04:39:38.471Z,11.60
2022-12-07T04:42:05.467Z,11.70
2022-12-07T04:44:32.754Z,11.60
2022-12-07T04:47:00.884Z,11.60
2022-12-07T04:49:28.025Z,11.50
2022-12-07T04:51:54.981Z,11.50
2022-12-07T04:54:22.553Z,11.60
2022-12-07T04:56:49.647Z,11.60
2022-12-07T04:59:17.007Z,11.60
2022-12-07T05:01:44.194Z,11.60
2022-12-07T05:04:12.048Z,11.60
2022-12-07T05:06:39.039Z,11.60
2022-12-07T05:09:06.027Z,11.70
2022-12-07T05:11:39.138Z,11.70
2022-12-07T05:14:09.321Z,11.80
2022-12-07T05:16:36.352Z,11.90
2022-12-07T05:19:04.560Z,11.90
2022-12-07T05:21:32.081Z,11.90
2022-12-07T05:23:59.371Z,11.80
2022-12-07T05:26:26.808Z,11.80
2022-12-07T05:28:54.418Z,11.80
2022-12-07T05:31:22.399Z,11.80
2022-12-07T05:33:52.163Z,11.90
2022-12-07T05:36:19.261Z,11.80
2022-12-07T05:38:46.510Z,11.70
2022-12-07T05:41:35.796Z,11.60
2022-12-07T05:44:02.865Z,11.60
2022-12-07T05:46:29.979Z,11.70
2022-12-07T05:48:57.954Z,11.60
2022-12-07T05:51:24.996Z,11.60
2022-12-07T05:53:52.218Z,11.60
2022-12-07T05:56:19.260Z,11.60
2022-12-07T05:59:05.227Z,11.70
2022-12-07T06:01:32.205Z,11.60
2022-12-07T06:03:59.153Z,11.50
2022-12-07T06:06:26.131Z,11.40
2022-12-07T06:08:53.863Z,11.30
2022-12-07T06:11:39.524Z,11.10
2022-12-07T06:14:06.610Z,11.10
2022-12-07T06:16:34.072Z,11.00
2022-12-07T06:19:01.590Z,10.90
2022-12-07T06:21:30.233Z,10.80
2022-12-07T06:23:57.672Z,10.70
2022-12-07T06:26:24.678Z,10.70
2022-12-07T06:28:51.819Z,10.60
2022-12-07T06:31:20.013Z,10.60
2022-12-07T06:33:47.354Z,10.50
2022-12-07T06:36:14.420Z,10.60
2022-12-07T06:38:41.571Z,10.60
2022-12-07T06:41:09.114Z,10.70
2022-12-07T06:43:36.547Z,10.70
2022-12-07T06:46:03.745Z,10.70
2022-12-07T06:48:31.017Z,10.70
2022-12-07T06:50:58.440Z,10.70
2022-12-07T06:53:25.457Z,10.90
2022-12-07T06:55:52.830Z,11.00
2022-12-07T06:58:19.925Z,11.10
2022-12-07T07:00:47.706Z,11.10
2022-12-07T07:03:14.988Z,11.10
2022-12-07T07:05:42.074Z,11.30
2022-12-07T07:08:24.789Z,11.40
2022-12-07T07:10:51.964Z,11.50
2022-12-07T07:13:19.165Z,11.60
2022-12-07T07:15:46.356Z,11.60
2022-12-07T07:18:13.259Z,11.60
2022-12-07T07:20:40.713Z,11.60
2022-12-07T07:23:11.504Z,11.60
2022-12-07T07:25:38.755Z,11.70
2022-12-07T07:28:05.789Z,11.70
2022-12-07T07:30:33.258Z,11.70
2022-12-07T07:33:00.793Z,11.70
2022-12-07T07:35:28.116Z,11.60
2022-12-07T07:37:55.538Z,11.60
2022-12-07T07:40:23.237Z,11.70
2022-12-07T07:42:53.629Z,11.70
2022-12-07T07:45:21.353Z,11.70
2022-12-07T07:47:48.546Z,11.70
2022-12-07T07:50:15.565Z,11.70
2022-12-07T07:52:42.634Z,11.60
2022-12-07T07:55:10.391Z,11.60
2022-12-07T07:57:37.740Z,11.60
2022-12-07T08:00:14.068Z,11.60
2022-12-07T08:02:41.199Z,11.60
2022-12-07T08:05:08.303Z,11.70
2022-12-07T08:07:35.338Z,11.80
2022-12-07T08:10:03.595Z,11.90
2022-12-07T08:12:30.868Z,11.90
2022-12-07T08:15:01.840Z,12.00
2022-12-07T08:17:29.012Z,12.00
2022-12-07T08:19:57.899Z,12.00
2022-12-07T08:22:24.868Z,12.10
2022-12-07T08:24:52.158Z,12.10
2022-12-07T08:27:20.119Z,12.10
2022-12-07T08:29:47.472Z,12.20
2022-12-07T08:32:15.428Z,12.10
2022-12-07T08:34:46.469Z,12.10
2022-12-07T08:37:14.662Z,12.10
2022-12-07T08:39:41.709Z,12.20
2022-12-07T08:42:11.484Z,12.20
2022-12-07T08:44:38.556Z,12.30
2022-12-07T08:47:05.781Z,12.30
2022-12-07T08:49:39.024Z,12.30
2022-12-07T08:52:07.732Z,12.40
2022-12-07T08:54:35.479Z,12.30
2022-12-07T08:57:03.806Z,12.20
2022-12-07T08:59:30.736Z,12.20
2022-12-07T09:01:58.038Z,12.20
2022-12-07T09:04:25.035Z,12.20
2022-12-07T09:06:52.047Z,12.30
2022-12-07T09:09:19.456Z,12.30
2022-12-07T09:11:46.530Z,12.30
2022-12-07T09:14:13.799Z,12.30
2022-12-07T09:16:40.990Z,12.30
2022-12-07T09:19:08.980Z,12.30
2022-12-07T09:21:36.052Z,12.20
2022-12-07T09:24:06.325Z,12.20
2022-12-07T09:26:33.444Z,12.20
2022-12-07T09:29:00.491Z,12.10
2022-12-07T09:31:27.617Z,12.20
2022-12-07T09:33:55.739Z,12.20
2022-12-07T09:36:23.297Z,12.30
2022-12-07T09:38:52.164Z,12.40
2022-12-07T09:41:19.426Z,12.40
2022-12-07T09:43:51.415Z,12.40
2022-12-07T09:46:20.783Z,12.40
2022-12-07T09:48:48.002Z,12.40
2022-12-07T09:51:25.129Z,12.50
2022-12-07T09:53:56.427Z,12.60
2022-12-07T09:56:43.647Z,12.70
2022-12-07T09:59:13.821Z,12.70
2022-12-07T10:01:41.207Z,12.60
2022-12-07T10:04:12.045Z,12.70
2022-12-07T10:06:39.031Z,12.80
2022-12-07T10:09:16.180Z,12.90
2022-12-07T10:12:02.358Z,12.90
2022-12-07T10:14:58.748Z,12.80
2022-12-07T10:17:33.730Z,12.80
2022-12-07T10:20:10.256Z,12.80
2022-12-07T10:22:37.462Z,12.80
2022-12-07T10:25:11.039Z,12.90
2022-12-07T10:27:38.382Z,12.90
2022-12-07T10:30:09.276Z,12.90
2022-12-07T10:32:36.914Z,12.90
2022-12-07T10:35:21.151Z,13.00
2022-12-07T10:37:48.224Z,12.90
2022-12-07T10:40:35.564Z,12.90
2022-12-07T10:43:02.617Z,12.90
2022-12-07T10:45:29.894Z,12.90
2022-12-07T10:47:57.882Z,13.00
2022-12-07T10:50:31.152Z,13.00
2022-12-07T10:53:00.689Z,13.00
2022-12-07T10:55:50.919Z,13.00
2022-12-07T10:58:21.011Z,13.00
2022-12-07T11:00:58.447Z,13.00
2022-12-07T11:03:33.017Z,12.90
2022-12-07T11:06:26.177Z,12.80
2022-12-07T11:08:53.011Z,12.80
2022-12-07T11:11:22.908Z,12.80
2022-12-07T11:13:57.906Z,12.80
2022-12-07T11:16:33.847Z,12.80
2022-12-07T11:19:00.750Z,12.90
2022-12-07T11:21:27.707Z,13.00
2022-12-07T11:24:06.815Z,13.00
2022-12-07T11:27:21.285Z,13.00
2022-12-07T11:29:52.767Z,12.90
2022-12-07T11:32:32.073Z,13.00
2022-12-07T11:35:04.846Z,13.10
2022-12-07T11:37:36.554Z,13.10
2022-12-07T11:40:18.611Z,13.20
2022-12-07T11:42:53.384Z,13.30
2022-12-07T11:45:25.505Z,13.30
2022-12-07T11:47:58.727Z,13.50
2022-12-07T11:50:39.382Z,13.50
2022-12-07T11:53:06.321Z,13.60
2022-12-07T11:55:52.808Z,13.60
2022-12-07T11:58:34.862Z,13.60
2022-12-07T12:01:31.568Z,13.50
2022-12-07T12:03:58.417Z,13.40
2022-12-07T12:06:25.284Z,13.40
2022-12-07T12:14:56.340Z,13.50
2022-12-07T12:17:38.576Z,13.40
2022-12-07T12:20:23.981Z,13.40
2022-12-07T12:22:59.128Z,13.40
2022-12-07T12:25:27.018Z,13.40
2022-12-07T12:27:55.063Z,13.50
2022-12-07T12:30:30.946Z,13.50
2022-12-07T12:33:03.103Z,13.50
2022-12-07T12:35:31.868Z,13.40
2022-12-07T12:38:17.449Z,13.50
2022-12-07T12:40:50.173Z,13.40
2022-12-07T12:43:37.105Z,13.40
2022-12-07T12:46:22.881Z,13.30
2022-12-07T12:48:50.794Z,13.20
2022-12-07T12:51:36.189Z,13.10
2022-12-07T12:54:06.646Z,13.00
2022-12-07T12:56:48.766Z,12.90
2022-12-07T12:59:26.276Z,13.10
2022-12-07T13:01:59.999Z,13.20
2022-12-07T13:04:32.378Z,13.20
2022-12-07T13:06:59.475Z,13.30
2022-12-07T13:09:30.206Z,13.30
2022-12-07T13:12:06.766Z,13.30
2022-12-07T13:14:41.505Z,13.20
2022-12-07T13:17:31.471Z,13.20
2022-12-07T13:20:02.572Z,13.20
2022-12-07T13:22:32.707Z,13.30
2022-12-07T13:25:09.137Z,13.30
2022-12-07T13:27:36.342Z,13.40
2022-12-07T13:30:03.814Z,13.40
2022-12-07T13:32:31.326Z,13.30
2022-12-07T13:34:58.419Z,13.30
2022-12-07T13:37:30.520Z,13.30
2022-12-07T13:40:03.901Z,13.20
2022-12-07T13:42:30.744Z,13.10
2022-12-07T13:44:58.290Z,13.10
2022-12-07T13:47:44.468Z,13.10
2022-12-07T13:50:37.402Z,13.10
2022-12-07T13:53:11.259Z,13.10
2022-12-07T13:55:38.264Z,13.00
2022-12-07T13:58:05.275Z,13.00
2022-12-07T14:00:32.591Z,13.00
2022-12-07T14:03:03.858Z,13.00
2022-12-07T14:05:36.788Z,12.90
2022-12-07T14:08:07.578Z,12.90
2022-12-07T14:10:38.845Z,12.80
2022-12-07T14:13:23.937Z,12.80
2022-12-07T14:15:51.754Z,12.80
2022-12-07T14:18:29.313Z,12.80
2022-12-07T14:21:20.001Z,12.80
2022-12-07T14:23:47.146Z,12.70
2022-12-07T14:26:14.860Z,12.60
2022-12-07T14:28:44.517Z,12.60
2022-12-07T14:31:20.549Z,12.70
2022-12-07T14:33:51.282Z,12.70
2022-12-07T14:36:19.825Z,12.80
2022-12-07T14:38:46.879Z,12.80
2022-12-07T14:41:33.220Z,12.80
2022-12-07T14:44:22.562Z,12.80
2022-12-07T14:46:47.927Z,12.80
2022-12-07T14:54:49.820Z,12.80
2022-12-07T14:57:17.003Z,12.70
2022-12-07T14:59:45.385Z,12.70
2022-12-07T15:02:13.564Z,12.60
2022-12-07T15:04:42.401Z,12.60
2022-12-07T15:07:27.735Z,12.60
2022-12-07T15:09:54.950Z,12.60
2022-12-07T15:12:24.650Z,12.50
2022-12-07T15:15:01.060Z,12.50
2022-12-07T15:17:32.253Z,12.50
2022-12-07T15:20:00.267Z,12.40
2022-12-07T15:22:27.328Z,12.40
2022-12-07T15:24:54.395Z,12.40
2022-12-07T15:27:21.366Z,12.30
2022-12-07T15:29:48.378Z,12.20
2022-12-07T15:32:15.431Z,12.30
2022-12-07T15:34:42.806Z,12.20
2022-12-07T15:37:09.847Z,12.20
2022-12-07T15:39:37.422Z,12.20
2022-12-07T15:42:04.516Z,12.10
2022-12-07T15:44:50.241Z,12.10
2022-12-07T15:47:17.292Z,12.10
2022-12-07T15:49:44.224Z,12.10
2022-12-07T15:52:11.129Z,12.20
2022-12-07T15:54:38.088Z,12.10
2022-12-07T15:57:04.982Z,12.10
2022-12-07T15:59:32.026Z,12.10
2022-12-07T16:01:59.239Z,12.10
2022-12-07T16:04:27.997Z,12.10
2022-12-07T16:06:54.944Z,12.10
2022-12-07T16:09:23.116Z,12.10
2022-12-07T16:11:53.946Z,12.10
2022-12-07T16:14:21.172Z,12.10
2022-12-07T16:16:48.220Z,12.00
2022-12-07T16:19:15.245Z,12.00
2022-12-07T16:21:43.459Z,11.90
2022-12-07T16:24:11.398Z,11.90
2022-12-07T16:26:38.448Z,11.80
2022-12-07T16:29:05.951Z,11.90
2022-12-07T16:31:33.020Z,11.90
2022-12-07T16:34:00.133Z,11.90
2022-12-07T16:39:16.450Z,12.00
2022-12-07T16:41:45.842Z,12.00
2022-12-07T16:44:13.704Z,11.90
2022-12-07T16:46:40.880Z,11.90
2022-12-07T16:49:08.689Z,11.90
2022-12-07T16:51:38.170Z,11.90
2022-12-07T16:54:05.194Z,12.10
2022-12-07T16:56:32.511Z,12.10
2022-12-07T16:58:59.843Z,12.10
2022-12-07T17:01:29.490Z,12.10
2022-12-07T17:03:58.386Z,12.00
2022-12-07T17:06:26.444Z,12.00
2022-12-07T17:08:53.565Z,12.00
2022-12-07T17:11:29.569Z,12.00
2022-12-07T17:14:17.822Z,12.00
2022-12-07T17:16:49.108Z,12.00
2022-12-07T17:19:19.994Z,12.00
2022-12-07T17:21:47.202Z,12.00
2022-12-07T17:24:14.894Z,11.90
2022-12-07T17:26:42.128Z,12.00
2022-12-07T17:29:12.088Z,12.00
2022-12-07T17:31:39.885Z,12.00
2022-12-07T17:34:11.442Z,12.00
2022-12-07T17:36:38.857Z,11.90
2022-12-07T17:39:08.993Z,11.90
2022-12-07T17:41:54.372Z,11.90
2022-12-07T17:44:22.507Z,11.80
2022-12-07T17:46:50.332Z,11.70
2022-12-07T17:49:17.833Z,11.70
2022-12-07T17:52:03.585Z,11.70
2022-12-07T17:54:30.894Z,11.70
2022-12-07T17:56:58.073Z,11.60
2022-12-07T17:59:25.300Z,11.70
2022-12-07T18:01:52.449Z,11.70
2022-12-07T18:04:19.554Z,11.70
2022-12-07T18:06:51.784Z,11.70
2022-12-07T18:09:19.562Z,11.80
2022-12-07T18:11:46.534Z,11.80
2022-12-07T18:14:36.525Z,11.70
2022-12-07T18:17:05.845Z,11.50
2022-12-07T18:19:33.370Z,11.40
2022-12-07T18:22:01.623Z,11.40
2022-12-07T18:24:36.220Z,11.40
2022-12-07T18:27:04.444Z,11.50
2022-12-07T18:29:31.390Z,11.50
2022-12-07T18:31:58.495Z,11.60
2022-12-07T18:34:26.369Z,11.60
2022-12-07T18:36:53.634Z,11.60
2022-12-07T18:39:21.625Z,11.50
2022-12-07T18:41:48.920Z,11.50
2022-12-07T18:44:17.085Z,11.50
2022-12-07T18:46:44.121Z,11.50
2022-12-07T18:49:12.227Z,11.60
2022-12-07T18:51:39.225Z,11.50
2022-12-07T18:54:06.444Z,11.40
2022-12-07T18:56:33.733Z,11.30
2022-12-07T18:59:19.513Z,11.40
2022-12-07T19:01:47.825Z,11.40
2022-12-07T19:04:14.894Z,11.40
2022-12-07T19:06:44.598Z,11.40
2022-12-07T19:09:12.206Z,11.40
2022-12-07T19:11:51.761Z,11.40
2022-12-07T19:14:20.662Z,11.40
2022-12-07T19:16:50.303Z,11.40
2022-12-07T19:19:18.041Z,11.40
2022-12-07T19:21:45.622Z,11.50
2022-12-07T19:24:12.755Z,11.50
2022-12-07T19:26:40.871Z,11.50
2022-12-07T19:29:08.014Z,11.50
2022-12-07T19:31:35.383Z,11.40
2022-12-07T19:34:02.414Z,11.40
2022-12-07T19:36:29.664Z,11.40
2022-12-07T19:38:56.810Z,11.50
2022-12-07T19:41:36.057Z,11.50
2022-12-07T19:44:04.303Z,11.50
2022-12-07T19:46:31.512Z,11.60
2022-12-07T19:48:59.601Z,11.60
2022-12-07T19:51:26.930Z,11.60
2022-12-07T19:53:54.126Z,11.60
2022-12-07T19:56:21.374Z,11.70
2022-12-07T19:58:48.853Z,11.70
2022-12-07T20:01:15.963Z,11.70
2022-12-07T20:03:43.173Z,11.70
2022-12-07T20:06:11.984Z,11.70
2022-12-07T20:08:38.952Z,11.70
2022-12-07T20:11:26.940Z,11.70
2022-12-07T20:13:53.893Z,11.70
2022-12-07T20:16:21.128Z,11.70
2022-12-07T20:18:51.634Z,11.70
2022-12-07T20:21:23.130Z,11.70
2022-12-07T20:23:50.126Z,11.60
2022-12-07T20:26:17.117Z,11.60
2022-12-07T20:28:46.915Z,11.50
2022-12-07T20:31:14.721Z,11.20
2022-12-07T20:33:42.939Z,11.10
2022-12-07T20:36:10.649Z,11.10
2022-12-07T20:38:37.931Z,11.10
2022-12-07T20:41:05.830Z,11.20
2022-12-07T20:43:33.185Z,11.40
2022-12-07T20:46:00.639Z,11.40
2022-12-07T20:48:28.245Z,11.40
2022-12-07T20:50:55.324Z,11.40
2022-12-07T20:53:22.558Z,11.50
2022-12-07T20:55:49.530Z,11.50
2022-12-07T20:58:16.992Z,11.50
2022-12-07T21:00:44.028Z,11.60
2022-12-07T21:03:11.228Z,11.50
2022-12-07T21:05:38.387Z,11.60
2022-12-07T21:08:05.443Z,11.60
2022-12-07T21:10:32.416Z,11.60
2022-12-07T21:12:59.498Z,11.50
2022-12-07T21:15:26.439Z,11.50
2022-12-07T21:17:53.533Z,11.50
2022-12-07T21:20:20.564Z,11.50
2022-12-07T21:22:47.955Z,11.50
2022-12-07T21:25:15.083Z,11.50
2022-12-07T21:27:42.073Z,11.50
2022-12-07T21:30:09.667Z,11.50
2022-12-07T21:32:36.839Z,11.50
2022-12-07T21:35:04.242Z,11.60
2022-12-07T21:37:31.336Z,11.50
2022-12-07T21:39:58.254Z,11.60
2022-12-07T21:42:25.532Z,11.60
2022-12-07T21:44:53.328Z,11.50
2022-12-07T21:47:20.311Z,11.50
2022-12-07T21:49:47.401Z,11.40
2022-12-07T21:52:14.499Z,11.30
2022-12-07T21:54:42.857Z,11.10
2022-12-07T21:57:10.573Z,10.90
2022-12-07T21:59:37.566Z,10.60
2022-12-07T22:02:04.671Z,10.40
2022-12-07T22:04:31.605Z,10.30
2022-12-07T22:06:59.451Z,10.30
2022-12-07T22:09:27.844Z,10.20
2022-12-07T22:11:54.831Z,10.20
2022-12-07T22:14:40.455Z,10.30
2022-12-07T22:17:07.373Z,10.30
2022-12-07T22:19:34.370Z,10.40
2022-12-07T22:22:01.286Z,10.50
2022-12-07T22:24:28.140Z,10.60
2022-12-07T22:26:55.097Z,10.60
2022-12-07T22:29:22.083Z,10.70
2022-12-07T22:31:53.492Z,10.70
2022-12-07T22:34:21.431Z,10.90
2022-12-07T22:36:48.397Z,10.90
2022-12-07T22:39:15.305Z,11.00
2022-12-07T22:41:42.273Z,11.10
2022-12-07T22:44:09.560Z,11.10
2022-12-07T22:46:36.814Z,11.20
2022-12-07T22:49:03.823Z,11.20
2022-12-07T22:51:31.697Z,11.30
2022-12-07T22:54:02.724Z,11.30
2022-12-07T22:56:30.876Z,11.30
2022-12-07T22:58:58.150Z,11.20
2022-12-07T23:01:25.136Z,11.20
2022-12-07T23:03:52.154Z,11.10
2022-12-07T23:06:21.234Z,11.10
2022-12-07T23:08:48.267Z,11.10
2022-12-07T23:11:38.352Z,11.10
2022-12-07T23:14:16.708Z,11.20
2022-12-07T23:16:44.395Z,11.20
2022-12-07T23:19:11.392Z,11.20
2022-12-07T23:21:38.681Z,11.20
2022-12-07T23:24:06.484Z,11.20
2022-12-07T23:26:33.726Z,11.20
2022-12-07T23:29:01.235Z,11.10
2022-12-07T23:31:28.283Z,11.10
2022-12-07T23:33:55.509Z,11.00
2022-12-07T23:36:23.411Z,11.00
2022-12-07T23:38:50.862Z,11.00
2022-12-07T23:41:18.642Z,11.00
2022-12-07T23:43:45.686Z,11.10
2022-12-07T23:46:19.700Z,11.00
2022-12-07T23:48:47.136Z,11.00
2022-12-07T23:51:14.387Z,11.10
2022-12-07T23:53:42.548Z,11.10
2022-12-07T23:56:19.906Z,11.20
2022-12-07T23:58:47.060Z,11.20
